sensor_id;sensor_type;location;lat;lon;timestamp;P1;durP1;ratioP1;P2;durP2;ratioP2
67162;SDS011;54092;53.088;8.850;2023-11-19T00:01:32;7.65;;;4.25;;
67162;SDS011;54092;53.088;8.850;2023-11-19T00:03:58;8.90;;;4.47;;
67162;SDS011;54092;53.088;8.850;2023-11-19T00:06:23;8.55;;;4.72;;
67162;SDS011;54092;53.088;8.850;2023-11-19T00:08:50;8.95;;;4.43;;
67162;SDS011;54092;53.088;8.850;2023-11-19T00:11:16;9.52;;;4.82;;
67162;SDS011;54092;53.088;8.850;2023-11-19T00:13:42;10.02;;;5.07;;
67162;SDS011;54092;53.088;8.850;2023-11-19T00:16:07;9.55;;;4.82;;
67162;SDS011;54092;53.088;8.850;2023-11-19T00:18:34;9.73;;;5.10;;
67162;SDS011;54092;53.088;8.850;2023-11-19T00:21:01;8.98;;;5.07;;
67162;SDS011;54092;53.088;8.850;2023-11-19T00:23:27;11.25;;;5.43;;
67162;SDS011;54092;53.088;8.850;2023-11-19T00:25:52;10.63;;;5.70;;
67162;SDS011;54092;53.088;8.850;2023-11-19T00:28:18;10.57;;;5.70;;
67162;SDS011;54092;53.088;8.850;2023-11-19T00:30:44;12.88;;;6.70;;
67162;SDS011;54092;53.088;8.850;2023-11-19T00:33:09;11.05;;;6.28;;
67162;SDS011;54092;53.088;8.850;2023-11-19T00:35:35;12.15;;;6.70;;
67162;SDS011;54092;53.088;8.850;2023-11-19T00:38:00;11.38;;;6.28;;
67162;SDS011;54092;53.088;8.850;2023-11-19T00:40:27;12.75;;;7.35;;
67162;SDS011;54092;53.088;8.850;2023-11-19T00:42:53;12.23;;;6.68;;
67162;SDS011;54092;53.088;8.850;2023-11-19T00:45:19;15.02;;;7.45;;
67162;SDS011;54092;53.088;8.850;2023-11-19T00:47:44;15.43;;;7.47;;
67162;SDS011;54092;53.088;8.850;2023-11-19T00:50:10;14.82;;;7.63;;
67162;SDS011;54092;53.088;8.850;2023-11-19T00:52:36;13.23;;;7.18;;
67162;SDS011;54092;53.088;8.850;2023-11-19T00:55:02;15.77;;;7.38;;
67162;SDS011;54092;53.088;8.850;2023-11-19T00:57:29;13.90;;;7.30;;
67162;SDS011;54092;53.088;8.850;2023-11-19T00:59:57;13.45;;;6.72;;
67162;SDS011;54092;53.088;8.850;2023-11-19T01:02:23;13.23;;;7.00;;
67162;SDS011;54092;53.088;8.850;2023-11-19T01:04:49;13.43;;;6.40;;
67162;SDS011;54092;53.088;8.850;2023-11-19T01:07:15;11.73;;;6.40;;
67162;SDS011;54092;53.088;8.850;2023-11-19T01:09:41;14.93;;;7.47;;
67162;SDS011;54092;53.088;8.850;2023-11-19T01:12:07;12.65;;;6.75;;
67162;SDS011;54092;53.088;8.850;2023-11-19T01:14:35;14.27;;;7.28;;
67162;SDS011;54092;53.088;8.850;2023-11-19T01:17:00;13.50;;;7.93;;
67162;SDS011;54092;53.088;8.850;2023-11-19T01:19:26;15.27;;;7.68;;
67162;SDS011;54092;53.088;8.850;2023-11-19T01:21:53;16.15;;;7.65;;
67162;SDS011;54092;53.088;8.850;2023-11-19T01:24:19;15.50;;;8.38;;
67162;SDS011;54092;53.088;8.850;2023-11-19T01:26:45;15.25;;;8.27;;
67162;SDS011;54092;53.088;8.850;2023-11-19T01:29:12;17.02;;;7.63;;
67162;SDS011;54092;53.088;8.850;2023-11-19T01:31:41;14.68;;;8.00;;
67162;SDS011;54092;53.088;8.850;2023-11-19T01:34:07;15.82;;;8.32;;
67162;SDS011;54092;53.088;8.850;2023-11-19T01:36:33;13.82;;;6.90;;
67162;SDS011;54092;53.088;8.850;2023-11-19T01:38:59;16.13;;;7.80;;
67162;SDS011;54092;53.088;8.850;2023-11-19T01:41:24;15.68;;;7.75;;
67162;SDS011;54092;53.088;8.850;2023-11-19T01:43:50;15.77;;;7.88;;
67162;SDS011;54092;53.088;8.850;2023-11-19T01:46:16;14.68;;;8.43;;
67162;SDS011;54092;53.088;8.850;2023-11-19T01:48:44;16.77;;;8.50;;
67162;SDS011;54092;53.088;8.850;2023-11-19T01:51:11;16.73;;;8.48;;
67162;SDS011;54092;53.088;8.850;2023-11-19T01:53:38;17.02;;;8.65;;
67162;SDS011;54092;53.088;8.850;2023-11-19T01:56:04;16.98;;;8.00;;
67162;SDS011;54092;53.088;8.850;2023-11-19T01:58:33;17.33;;;8.93;;
67162;SDS011;54092;53.088;8.850;2023-11-19T02:01:00;16.45;;;8.98;;
67162;SDS011;54092;53.088;8.850;2023-11-19T02:03:28;16.83;;;8.50;;
67162;SDS011;54092;53.088;8.850;2023-11-19T02:05:56;16.60;;;8.77;;
67162;SDS011;54092;53.088;8.850;2023-11-19T02:08:22;17.20;;;9.25;;
67162;SDS011;54092;53.088;8.850;2023-11-19T02:10:48;18.88;;;9.70;;
67162;SDS011;54092;53.088;8.850;2023-11-19T02:13:13;19.85;;;8.55;;
67162;SDS011;54092;53.088;8.850;2023-11-19T02:15:40;19.70;;;9.90;;
67162;SDS011;54092;53.088;8.850;2023-11-19T02:18:19;18.05;;;8.98;;
67162;SDS011;54092;53.088;8.850;2023-11-19T02:20:46;19.92;;;8.85;;
67162;SDS011;54092;53.088;8.850;2023-11-19T02:23:13;19.75;;;8.93;;
67162;SDS011;54092;53.088;8.850;2023-11-19T02:25:38;17.40;;;8.57;;
67162;SDS011;54092;53.088;8.850;2023-11-19T02:28:05;23.73;;;10.52;;
67162;SDS011;54092;53.088;8.850;2023-11-19T02:30:32;18.80;;;9.52;;
67162;SDS011;54092;53.088;8.850;2023-11-19T02:32:57;18.52;;;9.25;;
67162;SDS011;54092;53.088;8.850;2023-11-19T02:35:27;20.45;;;10.00;;
67162;SDS011;54092;53.088;8.850;2023-11-19T02:37:55;23.55;;;10.38;;
67162;SDS011;54092;53.088;8.850;2023-11-19T02:40:21;26.35;;;11.07;;
67162;SDS011;54092;53.088;8.850;2023-11-19T02:42:49;26.25;;;11.50;;
67162;SDS011;54092;53.088;8.850;2023-11-19T02:45:15;26.92;;;12.73;;
67162;SDS011;54092;53.088;8.850;2023-11-19T02:47:43;29.00;;;12.50;;
67162;SDS011;54092;53.088;8.850;2023-11-19T02:50:12;38.13;;;13.82;;
67162;SDS011;54092;53.088;8.850;2023-11-19T02:52:41;29.42;;;12.50;;
67162;SDS011;54092;53.088;8.850;2023-11-19T02:55:08;34.38;;;13.88;;
67162;SDS011;54092;53.088;8.850;2023-11-19T02:57:35;38.15;;;14.43;;
67162;SDS011;54092;53.088;8.850;2023-11-19T03:00:01;41.50;;;14.80;;
67162;SDS011;54092;53.088;8.850;2023-11-19T03:02:36;31.92;;;14.15;;
67162;SDS011;54092;53.088;8.850;2023-11-19T03:05:09;38.38;;;14.90;;
67162;SDS011;54092;53.088;8.850;2023-11-19T03:07:36;35.20;;;14.23;;
67162;SDS011;54092;53.088;8.850;2023-11-19T03:10:01;38.50;;;15.82;;
67162;SDS011;54092;53.088;8.850;2023-11-19T03:12:33;34.95;;;14.75;;
67162;SDS011;54092;53.088;8.850;2023-11-19T03:14:59;39.97;;;15.95;;
67162;SDS011;54092;53.088;8.850;2023-11-19T03:17:24;36.08;;;15.07;;
67162;SDS011;54092;53.088;8.850;2023-11-19T03:19:50;34.95;;;14.05;;
67162;SDS011;54092;53.088;8.850;2023-11-19T03:22:15;31.10;;;14.07;;
67162;SDS011;54092;53.088;8.850;2023-11-19T03:24:41;34.65;;;13.95;;
67162;SDS011;54092;53.088;8.850;2023-11-19T03:27:06;36.45;;;14.02;;
67162;SDS011;54092;53.088;8.850;2023-11-19T03:29:32;32.50;;;14.65;;
67162;SDS011;54092;53.088;8.850;2023-11-19T03:31:57;35.63;;;14.32;;
67162;SDS011;54092;53.088;8.850;2023-11-19T03:34:23;34.95;;;13.95;;
67162;SDS011;54092;53.088;8.850;2023-11-19T03:36:48;34.35;;;14.07;;
67162;SDS011;54092;53.088;8.850;2023-11-19T03:39:14;36.47;;;14.38;;
67162;SDS011;54092;53.088;8.850;2023-11-19T03:41:39;35.63;;;14.82;;
67162;SDS011;54092;53.088;8.850;2023-11-19T03:44:05;35.83;;;14.20;;
67162;SDS011;54092;53.088;8.850;2023-11-19T03:46:30;31.80;;;14.05;;
67162;SDS011;54092;53.088;8.850;2023-11-19T03:48:56;33.85;;;14.02;;
67162;SDS011;54092;53.088;8.850;2023-11-19T03:51:22;40.35;;;14.38;;
67162;SDS011;54092;53.088;8.850;2023-11-19T03:53:47;34.95;;;13.27;;
67162;SDS011;54092;53.088;8.850;2023-11-19T03:56:13;39.33;;;13.98;;
67162;SDS011;54092;53.088;8.850;2023-11-19T03:58:38;41.88;;;13.82;;
67162;SDS011;54092;53.088;8.850;2023-11-19T04:01:04;38.55;;;14.85;;
67162;SDS011;54092;53.088;8.850;2023-11-19T04:03:31;39.40;;;14.02;;
67162;SDS011;54092;53.088;8.850;2023-11-19T04:05:56;38.58;;;14.57;;
67162;SDS011;54092;53.088;8.850;2023-11-19T04:08:22;32.33;;;13.32;;
67162;SDS011;54092;53.088;8.850;2023-11-19T04:10:48;39.55;;;15.30;;
67162;SDS011;54092;53.088;8.850;2023-11-19T04:13:13;40.50;;;15.45;;
67162;SDS011;54092;53.088;8.850;2023-11-19T04:15:39;37.53;;;14.10;;
67162;SDS011;54092;53.088;8.850;2023-11-19T04:18:05;38.92;;;15.13;;
67162;SDS011;54092;53.088;8.850;2023-11-19T04:20:30;39.53;;;15.10;;
67162;SDS011;54092;53.088;8.850;2023-11-19T04:22:56;39.28;;;13.90;;
67162;SDS011;54092;53.088;8.850;2023-11-19T04:25:22;38.35;;;15.00;;
67162;SDS011;54092;53.088;8.850;2023-11-19T04:27:47;39.95;;;14.27;;
67162;SDS011;54092;53.088;8.850;2023-11-19T04:30:14;39.33;;;14.20;;
67162;SDS011;54092;53.088;8.850;2023-11-19T04:32:40;36.97;;;14.20;;
67162;SDS011;54092;53.088;8.850;2023-11-19T04:35:06;41.78;;;16.10;;
67162;SDS011;54092;53.088;8.850;2023-11-19T04:37:32;36.08;;;14.50;;
67162;SDS011;54092;53.088;8.850;2023-11-19T04:39:57;41.00;;;15.57;;
67162;SDS011;54092;53.088;8.850;2023-11-19T04:42:24;33.30;;;13.07;;
67162;SDS011;54092;53.088;8.850;2023-11-19T04:44:50;45.60;;;14.52;;
67162;SDS011;54092;53.088;8.850;2023-11-19T04:47:16;40.88;;;14.77;;
67162;SDS011;54092;53.088;8.850;2023-11-19T04:49:41;36.72;;;14.02;;
67162;SDS011;54092;53.088;8.850;2023-11-19T04:52:08;36.50;;;14.25;;
67162;SDS011;54092;53.088;8.850;2023-11-19T04:54:33;42.88;;;14.95;;
67162;SDS011;54092;53.088;8.850;2023-11-19T04:56:59;34.88;;;13.30;;
67162;SDS011;54092;53.088;8.850;2023-11-19T04:59:24;48.67;;;14.90;;
67162;SDS011;54092;53.088;8.850;2023-11-19T05:01:50;36.83;;;14.75;;
67162;SDS011;54092;53.088;8.850;2023-11-19T05:04:16;37.08;;;13.60;;
67162;SDS011;54092;53.088;8.850;2023-11-19T05:06:43;35.70;;;13.73;;
67162;SDS011;54092;53.088;8.850;2023-11-19T05:09:09;40.10;;;14.60;;
67162;SDS011;54092;53.088;8.850;2023-11-19T05:11:37;36.63;;;13.38;;
67162;SDS011;54092;53.088;8.850;2023-11-19T05:14:04;39.88;;;14.52;;
67162;SDS011;54092;53.088;8.850;2023-11-19T05:16:29;39.65;;;13.82;;
67162;SDS011;54092;53.088;8.850;2023-11-19T05:18:55;37.45;;;14.38;;
67162;SDS011;54092;53.088;8.850;2023-11-19T05:21:21;45.40;;;15.40;;
67162;SDS011;54092;53.088;8.850;2023-11-19T05:23:46;32.85;;;12.98;;
67162;SDS011;54092;53.088;8.850;2023-11-19T05:26:21;32.65;;;12.55;;
67162;SDS011;54092;53.088;8.850;2023-11-19T05:28:48;35.97;;;12.02;;
67162;SDS011;54092;53.088;8.850;2023-11-19T05:31:14;29.80;;;10.07;;
67162;SDS011;54092;53.088;8.850;2023-11-19T05:33:40;35.72;;;11.80;;
67162;SDS011;54092;53.088;8.850;2023-11-19T05:36:06;31.90;;;11.18;;
67162;SDS011;54092;53.088;8.850;2023-11-19T05:38:33;30.58;;;10.45;;
67162;SDS011;54092;53.088;8.850;2023-11-19T05:41:04;32.47;;;9.90;;
67162;SDS011;54092;53.088;8.850;2023-11-19T05:43:30;31.90;;;9.80;;
67162;SDS011;54092;53.088;8.850;2023-11-19T05:45:56;26.70;;;10.35;;
67162;SDS011;54092;53.088;8.850;2023-11-19T05:48:22;29.30;;;9.15;;
67162;SDS011;54092;53.088;8.850;2023-11-19T05:50:47;26.75;;;9.63;;
67162;SDS011;54092;53.088;8.850;2023-11-19T05:53:15;29.65;;;8.18;;
67162;SDS011;54092;53.088;8.850;2023-11-19T05:55:40;31.33;;;9.25;;
67162;SDS011;54092;53.088;8.850;2023-11-19T05:58:13;25.02;;;8.30;;
67162;SDS011;54092;53.088;8.850;2023-11-19T06:00:39;25.65;;;8.05;;
67162;SDS011;54092;53.088;8.850;2023-11-19T06:03:05;26.38;;;7.40;;
67162;SDS011;54092;53.088;8.850;2023-11-19T06:05:34;20.58;;;7.18;;
67162;SDS011;54092;53.088;8.850;2023-11-19T06:07:59;28.45;;;6.82;;
67162;SDS011;54092;53.088;8.850;2023-11-19T06:10:25;21.45;;;6.15;;
67162;SDS011;54092;53.088;8.850;2023-11-19T06:12:55;18.92;;;7.53;;
67162;SDS011;54092;53.088;8.850;2023-11-19T06:15:24;33.13;;;8.07;;
67162;SDS011;54092;53.088;8.850;2023-11-19T06:17:53;21.93;;;6.67;;
67162;SDS011;54092;53.088;8.850;2023-11-19T06:20:20;26.50;;;7.28;;
67162;SDS011;54092;53.088;8.850;2023-11-19T06:22:45;19.88;;;6.78;;
67162;SDS011;54092;53.088;8.850;2023-11-19T06:25:11;28.17;;;7.60;;
67162;SDS011;54092;53.088;8.850;2023-11-19T06:27:39;23.15;;;6.63;;
67162;SDS011;54092;53.088;8.850;2023-11-19T06:30:05;18.48;;;6.70;;
67162;SDS011;54092;53.088;8.850;2023-11-19T06:32:31;23.80;;;6.45;;
67162;SDS011;54092;53.088;8.850;2023-11-19T06:34:57;23.33;;;5.00;;
67162;SDS011;54092;53.088;8.850;2023-11-19T06:37:23;21.70;;;5.22;;
67162;SDS011;54092;53.088;8.850;2023-11-19T06:39:49;25.30;;;6.05;;
67162;SDS011;54092;53.088;8.850;2023-11-19T06:42:14;26.83;;;6.18;;
67162;SDS011;54092;53.088;8.850;2023-11-19T06:44:40;32.08;;;6.50;;
67162;SDS011;54092;53.088;8.850;2023-11-19T06:47:05;29.33;;;6.45;;
67162;SDS011;54092;53.088;8.850;2023-11-19T06:49:31;26.05;;;5.57;;
67162;SDS011;54092;53.088;8.850;2023-11-19T06:51:57;31.88;;;5.65;;
67162;SDS011;54092;53.088;8.850;2023-11-19T06:54:23;25.15;;;4.97;;
67162;SDS011;54092;53.088;8.850;2023-11-19T06:56:49;27.98;;;5.25;;
67162;SDS011;54092;53.088;8.850;2023-11-19T06:59:14;25.98;;;4.88;;
67162;SDS011;54092;53.088;8.850;2023-11-19T07:01:40;24.58;;;5.68;;
67162;SDS011;54092;53.088;8.850;2023-11-19T07:04:07;27.17;;;6.78;;
67162;SDS011;54092;53.088;8.850;2023-11-19T07:06:35;27.30;;;5.45;;
67162;SDS011;54092;53.088;8.850;2023-11-19T07:09:01;24.10;;;5.85;;
67162;SDS011;54092;53.088;8.850;2023-11-19T07:11:35;26.77;;;6.28;;
67162;SDS011;54092;53.088;8.850;2023-11-19T07:14:01;29.10;;;4.97;;
67162;SDS011;54092;53.088;8.850;2023-11-19T07:16:27;28.85;;;5.57;;
67162;SDS011;54092;53.088;8.850;2023-11-19T07:18:53;34.38;;;6.03;;
67162;SDS011;54092;53.088;8.850;2023-11-19T07:21:19;30.40;;;5.82;;
67162;SDS011;54092;53.088;8.850;2023-11-19T07:23:44;26.45;;;5.43;;
67162;SDS011;54092;53.088;8.850;2023-11-19T07:26:11;25.60;;;5.00;;
67162;SDS011;54092;53.088;8.850;2023-11-19T07:28:37;23.38;;;5.05;;
67162;SDS011;54092;53.088;8.850;2023-11-19T07:31:04;33.50;;;5.45;;
67162;SDS011;54092;53.088;8.850;2023-11-19T07:33:33;31.98;;;5.82;;
67162;SDS011;54092;53.088;8.850;2023-11-19T07:35:58;34.55;;;5.25;;
67162;SDS011;54092;53.088;8.850;2023-11-19T07:38:24;30.38;;;5.93;;
67162;SDS011;54092;53.088;8.850;2023-11-19T07:40:49;27.05;;;5.53;;
67162;SDS011;54092;53.088;8.850;2023-11-19T07:43:15;31.73;;;5.68;;
67162;SDS011;54092;53.088;8.850;2023-11-19T07:45:41;28.33;;;5.68;;
67162;SDS011;54092;53.088;8.850;2023-11-19T07:48:08;30.50;;;5.57;;
67162;SDS011;54092;53.088;8.850;2023-11-19T07:50:34;19.45;;;5.05;;
67162;SDS011;54092;53.088;8.850;2023-11-19T07:52:59;24.95;;;4.45;;
67162;SDS011;54092;53.088;8.850;2023-11-19T07:55:27;26.55;;;4.75;;
67162;SDS011;54092;53.088;8.850;2023-11-19T07:57:52;31.80;;;5.53;;
67162;SDS011;54092;53.088;8.850;2023-11-19T08:00:18;24.23;;;4.75;;
67162;SDS011;54092;53.088;8.850;2023-11-19T08:02:44;21.60;;;4.28;;
67162;SDS011;54092;53.088;8.850;2023-11-19T08:05:10;21.92;;;3.88;;
67162;SDS011;54092;53.088;8.850;2023-11-19T08:07:36;32.55;;;5.60;;
67162;SDS011;54092;53.088;8.850;2023-11-19T08:10:02;30.20;;;5.82;;
67162;SDS011;54092;53.088;8.850;2023-11-19T08:12:30;32.25;;;4.82;;
67162;SDS011;54092;53.088;8.850;2023-11-19T08:14:56;30.25;;;5.43;;
67162;SDS011;54092;53.088;8.850;2023-11-19T08:17:23;24.83;;;5.28;;
67162;SDS011;54092;53.088;8.850;2023-11-19T08:19:49;27.25;;;4.85;;
67162;SDS011;54092;53.088;8.850;2023-11-19T08:22:14;26.08;;;5.35;;
67162;SDS011;54092;53.088;8.850;2023-11-19T08:24:41;34.22;;;5.95;;
67162;SDS011;54092;53.088;8.850;2023-11-19T08:27:07;31.92;;;5.60;;
67162;SDS011;54092;53.088;8.850;2023-11-19T08:29:33;25.17;;;5.28;;
67162;SDS011;54092;53.088;8.850;2023-11-19T08:32:00;27.95;;;4.28;;
67162;SDS011;54092;53.088;8.850;2023-11-19T08:34:27;22.58;;;4.28;;
67162;SDS011;54092;53.088;8.850;2023-11-19T08:36:52;30.50;;;5.25;;
67162;SDS011;54092;53.088;8.850;2023-11-19T08:39:18;26.95;;;5.72;;
67162;SDS011;54092;53.088;8.850;2023-11-19T08:41:46;24.73;;;5.00;;
67162;SDS011;54092;53.088;8.850;2023-11-19T08:44:12;32.35;;;5.65;;
67162;SDS011;54092;53.088;8.850;2023-11-19T08:46:37;33.90;;;5.05;;
67162;SDS011;54092;53.088;8.850;2023-11-19T08:49:04;21.50;;;5.05;;
67162;SDS011;54092;53.088;8.850;2023-11-19T08:51:30;27.73;;;4.53;;
67162;SDS011;54092;53.088;8.850;2023-11-19T08:53:56;26.40;;;5.65;;
67162;SDS011;54092;53.088;8.850;2023-11-19T08:56:22;13.43;;;4.35;;
67162;SDS011;54092;53.088;8.850;2023-11-19T08:58:48;26.65;;;4.72;;
67162;SDS011;54092;53.088;8.850;2023-11-19T09:01:13;21.98;;;4.20;;
67162;SDS011;54092;53.088;8.850;2023-11-19T09:03:39;29.05;;;4.57;;
67162;SDS011;54092;53.088;8.850;2023-11-19T09:06:05;21.13;;;4.43;;
67162;SDS011;54092;53.088;8.850;2023-11-19T09:08:31;24.77;;;4.82;;
67162;SDS011;54092;53.088;8.850;2023-11-19T09:10:56;18.50;;;3.65;;
67162;SDS011;54092;53.088;8.850;2023-11-19T09:13:22;24.85;;;3.90;;
67162;SDS011;54092;53.088;8.850;2023-11-19T09:15:48;28.27;;;5.30;;
67162;SDS011;54092;53.088;8.850;2023-11-19T09:18:13;28.83;;;4.50;;
67162;SDS011;54092;53.088;8.850;2023-11-19T09:20:39;24.05;;;4.45;;
67162;SDS011;54092;53.088;8.850;2023-11-19T09:23:05;31.80;;;4.22;;
67162;SDS011;54092;53.088;8.850;2023-11-19T09:25:31;18.67;;;4.28;;
67162;SDS011;54092;53.088;8.850;2023-11-19T09:27:57;28.25;;;4.28;;
67162;SDS011;54092;53.088;8.850;2023-11-19T09:30:22;17.63;;;3.60;;
67162;SDS011;54092;53.088;8.850;2023-11-19T09:32:48;22.77;;;4.93;;
67162;SDS011;54092;53.088;8.850;2023-11-19T09:35:13;27.05;;;4.43;;
67162;SDS011;54092;53.088;8.850;2023-11-19T09:37:41;19.08;;;3.65;;
67162;SDS011;54092;53.088;8.850;2023-11-19T09:40:07;25.60;;;3.97;;
67162;SDS011;54092;53.088;8.850;2023-11-19T09:42:37;28.67;;;4.20;;
67162;SDS011;54092;53.088;8.850;2023-11-19T09:45:15;18.63;;;4.13;;
67162;SDS011;54092;53.088;8.850;2023-11-19T09:47:46;24.50;;;4.80;;
67162;SDS011;54092;53.088;8.850;2023-11-19T09:50:14;18.88;;;3.97;;
67162;SDS011;54092;53.088;8.850;2023-11-19T09:52:43;26.17;;;4.22;;
67162;SDS011;54092;53.088;8.850;2023-11-19T09:55:09;28.02;;;5.57;;
67162;SDS011;54092;53.088;8.850;2023-11-19T09:57:34;23.98;;;5.20;;
67162;SDS011;54092;53.088;8.850;2023-11-19T10:00:02;28.67;;;5.20;;
67162;SDS011;54092;53.088;8.850;2023-11-19T10:02:31;22.90;;;5.03;;
67162;SDS011;54092;53.088;8.850;2023-11-19T10:04:57;22.42;;;4.93;;
67162;SDS011;54092;53.088;8.850;2023-11-19T10:07:24;23.95;;;4.05;;
67162;SDS011;54092;53.088;8.850;2023-11-19T10:09:50;28.75;;;5.00;;
67162;SDS011;54092;53.088;8.850;2023-11-19T10:12:15;24.45;;;5.38;;
67162;SDS011;54092;53.088;8.850;2023-11-19T10:14:41;37.28;;;5.95;;
67162;SDS011;54092;53.088;8.850;2023-11-19T10:17:09;26.15;;;5.00;;
67162;SDS011;54092;53.088;8.850;2023-11-19T10:19:34;25.15;;;4.72;;
67162;SDS011;54092;53.088;8.850;2023-11-19T10:22:06;27.10;;;4.72;;
67162;SDS011;54092;53.088;8.850;2023-11-19T10:24:32;29.80;;;6.07;;
67162;SDS011;54092;53.088;8.850;2023-11-19T10:27:07;27.33;;;5.25;;
67162;SDS011;54092;53.088;8.850;2023-11-19T10:29:36;26.25;;;5.25;;
67162;SDS011;54092;53.088;8.850;2023-11-19T10:32:02;31.95;;;5.93;;
67162;SDS011;54092;53.088;8.850;2023-11-19T10:34:29;36.90;;;6.43;;
67162;SDS011;54092;53.088;8.850;2023-11-19T10:36:55;22.98;;;6.00;;
67162;SDS011;54092;53.088;8.850;2023-11-19T10:39:21;28.83;;;5.25;;
67162;SDS011;54092;53.088;8.850;2023-11-19T10:41:48;29.42;;;5.65;;
67162;SDS011;54092;53.088;8.850;2023-11-19T10:44:30;32.08;;;7.57;;
67162;SDS011;54092;53.088;8.850;2023-11-19T10:46:58;33.25;;;6.32;;
67162;SDS011;54092;53.088;8.850;2023-11-19T10:49:24;30.20;;;5.75;;
67162;SDS011;54092;53.088;8.850;2023-11-19T10:51:50;30.27;;;5.10;;
67162;SDS011;54092;53.088;8.850;2023-11-19T10:54:18;25.92;;;5.22;;
67162;SDS011;54092;53.088;8.850;2023-11-19T10:56:44;22.20;;;4.97;;
67162;SDS011;54092;53.088;8.850;2023-11-19T10:59:11;29.05;;;5.15;;
67162;SDS011;54092;53.088;8.850;2023-11-19T11:01:44;25.27;;;5.00;;
67162;SDS011;54092;53.088;8.850;2023-11-19T11:04:13;20.65;;;4.20;;
67162;SDS011;54092;53.088;8.850;2023-11-19T11:06:42;18.88;;;5.10;;
67162;SDS011;54092;53.088;8.850;2023-11-19T11:09:08;22.02;;;5.35;;
67162;SDS011;54092;53.088;8.850;2023-11-19T11:11:39;25.70;;;5.13;;
67162;SDS011;54092;53.088;8.850;2023-11-19T11:14:05;27.92;;;4.63;;
67162;SDS011;54092;53.088;8.850;2023-11-19T11:16:32;15.30;;;2.97;;
67162;SDS011;54092;53.088;8.850;2023-11-19T11:18:59;21.67;;;4.10;;
67162;SDS011;54092;53.088;8.850;2023-11-19T11:21:25;25.42;;;5.07;;
67162;SDS011;54092;53.088;8.850;2023-11-19T11:26:27;28.23;;;4.90;;
67162;SDS011;54092;53.088;8.850;2023-11-19T11:37:29;18.02;;;3.83;;
67162;SDS011;54092;53.088;8.850;2023-11-19T11:40:04;16.85;;;4.15;;
67162;SDS011;54092;53.088;8.850;2023-11-19T11:42:35;18.23;;;4.28;;
67162;SDS011;54092;53.088;8.850;2023-11-19T11:45:16;24.10;;;5.80;;
67162;SDS011;54092;53.088;8.850;2023-11-19T11:50:11;21.92;;;5.40;;
67162;SDS011;54092;53.088;8.850;2023-11-19T11:55:37;16.52;;;4.50;;
67162;SDS011;54092;53.088;8.850;2023-11-19T11:58:20;24.25;;;4.70;;
67162;SDS011;54092;53.088;8.850;2023-11-19T12:00:58;19.27;;;5.22;;
67162;SDS011;54092;53.088;8.850;2023-11-19T12:03:27;22.50;;;4.30;;
67162;SDS011;54092;53.088;8.850;2023-11-19T12:05:54;25.85;;;5.85;;
67162;SDS011;54092;53.088;8.850;2023-11-19T12:08:24;37.75;;;5.80;;
67162;SDS011;54092;53.088;8.850;2023-11-19T12:10:51;24.15;;;4.63;;
67162;SDS011;54092;53.088;8.850;2023-11-19T12:13:19;22.25;;;4.70;;
67162;SDS011;54092;53.088;8.850;2023-11-19T12:18:31;25.42;;;4.90;;
67162;SDS011;54092;53.088;8.850;2023-11-19T12:21:01;22.38;;;4.40;;
67162;SDS011;54092;53.088;8.850;2023-11-19T12:23:30;26.42;;;4.60;;
67162;SDS011;54092;53.088;8.850;2023-11-19T12:28:22;23.90;;;4.30;;
67162;SDS011;54092;53.088;8.850;2023-11-19T12:30:51;24.48;;;5.32;;
67162;SDS011;54092;53.088;8.850;2023-11-19T12:33:18;22.13;;;4.72;;
67162;SDS011;54092;53.088;8.850;2023-11-19T12:35:45;28.05;;;5.03;;
67162;SDS011;54092;53.088;8.850;2023-11-19T12:38:20;20.20;;;4.10;;
67162;SDS011;54092;53.088;8.850;2023-11-19T12:41:03;25.23;;;5.10;;
67162;SDS011;54092;53.088;8.850;2023-11-19T12:43:29;27.60;;;4.15;;
67162;SDS011;54092;53.088;8.850;2023-11-19T12:45:54;26.35;;;5.60;;
67162;SDS011;54092;53.088;8.850;2023-11-19T12:48:20;27.73;;;4.63;;
67162;SDS011;54092;53.088;8.850;2023-11-19T12:50:55;22.27;;;4.00;;
67162;SDS011;54092;53.088;8.850;2023-11-19T12:53:22;26.85;;;4.80;;
67162;SDS011;54092;53.088;8.850;2023-11-19T12:55:49;10.45;;;2.60;;
67162;SDS011;54092;53.088;8.850;2023-11-19T12:58:30;18.35;;;4.20;;
67162;SDS011;54092;53.088;8.850;2023-11-19T13:01:01;20.73;;;3.78;;
67162;SDS011;54092;53.088;8.850;2023-11-19T13:03:31;14.77;;;3.88;;
67162;SDS011;54092;53.088;8.850;2023-11-19T13:06:06;19.15;;;3.28;;
67162;SDS011;54092;53.088;8.850;2023-11-19T13:08:37;13.27;;;2.97;;
67162;SDS011;54092;53.088;8.850;2023-11-19T13:11:03;11.20;;;2.55;;
67162;SDS011;54092;53.088;8.850;2023-11-19T13:13:29;16.27;;;2.80;;
67162;SDS011;54092;53.088;8.850;2023-11-19T13:16:02;4.40;;;1.70;;
67162;SDS011;54092;53.088;8.850;2023-11-19T13:18:30;6.72;;;1.98;;
67162;SDS011;54092;53.088;8.850;2023-11-19T13:20:56;6.10;;;1.52;;
67162;SDS011;54092;53.088;8.850;2023-11-19T13:23:24;4.93;;;1.40;;
67162;SDS011;54092;53.088;8.850;2023-11-19T13:25:50;6.25;;;2.10;;
67162;SDS011;54092;53.088;8.850;2023-11-19T13:28:16;5.88;;;2.25;;
67162;SDS011;54092;53.088;8.850;2023-11-19T13:30:41;4.03;;;1.67;;
67162;SDS011;54092;53.088;8.850;2023-11-19T13:33:07;3.72;;;1.80;;
67162;SDS011;54092;53.088;8.850;2023-11-19T13:35:32;4.78;;;1.50;;
67162;SDS011;54092;53.088;8.850;2023-11-19T13:37:58;10.15;;;2.42;;
67162;SDS011;54092;53.088;8.850;2023-11-19T13:40:23;6.50;;;1.77;;
67162;SDS011;54092;53.088;8.850;2023-11-19T13:42:50;6.10;;;1.65;;
67162;SDS011;54092;53.088;8.850;2023-11-19T13:45:15;6.20;;;1.90;;
67162;SDS011;54092;53.088;8.850;2023-11-19T13:47:44;9.85;;;2.60;;
67162;SDS011;54092;53.088;8.850;2023-11-19T13:50:11;10.55;;;2.28;;
67162;SDS011;54092;53.088;8.850;2023-11-19T13:52:41;7.75;;;2.33;;
67162;SDS011;54092;53.088;8.850;2023-11-19T13:55:08;11.68;;;2.83;;
67162;SDS011;54092;53.088;8.850;2023-11-19T13:57:35;15.45;;;3.47;;
67162;SDS011;54092;53.088;8.850;2023-11-19T14:00:02;16.23;;;3.85;;
67162;SDS011;54092;53.088;8.850;2023-11-19T14:02:31;14.55;;;4.82;;
67162;SDS011;54092;53.088;8.850;2023-11-19T14:04:57;14.05;;;3.80;;
67162;SDS011;54092;53.088;8.850;2023-11-19T14:07:22;17.65;;;4.20;;
67162;SDS011;54092;53.088;8.850;2023-11-19T14:09:48;14.63;;;4.90;;
67162;SDS011;54092;53.088;8.850;2023-11-19T14:12:13;15.90;;;4.68;;
67162;SDS011;54092;53.088;8.850;2023-11-19T14:14:39;15.73;;;4.68;;
67162;SDS011;54092;53.088;8.850;2023-11-19T14:17:04;20.20;;;5.57;;
67162;SDS011;54092;53.088;8.850;2023-11-19T14:19:30;17.48;;;5.13;;
67162;SDS011;54092;53.088;8.850;2023-11-19T14:21:55;21.60;;;6.13;;
67162;SDS011;54092;53.088;8.850;2023-11-19T14:24:21;26.27;;;6.03;;
67162;SDS011;54092;53.088;8.850;2023-11-19T14:26:47;16.50;;;5.65;;
67162;SDS011;54092;53.088;8.850;2023-11-19T14:29:13;17.23;;;4.63;;
67162;SDS011;54092;53.088;8.850;2023-11-19T14:31:40;20.98;;;5.03;;
67162;SDS011;54092;53.088;8.850;2023-11-19T14:34:05;20.83;;;4.80;;
67162;SDS011;54092;53.088;8.850;2023-11-19T14:36:31;18.30;;;4.80;;
67162;SDS011;54092;53.088;8.850;2023-11-19T14:38:56;21.70;;;4.55;;
67162;SDS011;54092;53.088;8.850;2023-11-19T14:41:23;20.58;;;5.95;;
67162;SDS011;54092;53.088;8.850;2023-11-19T14:43:49;24.33;;;8.27;;
67162;SDS011;54092;53.088;8.850;2023-11-19T14:46:15;19.13;;;4.65;;
67162;SDS011;54092;53.088;8.850;2023-11-19T14:48:40;16.35;;;4.25;;
67162;SDS011;54092;53.088;8.850;2023-11-19T14:51:06;14.55;;;3.53;;
67162;SDS011;54092;53.088;8.850;2023-11-19T14:53:31;21.15;;;4.30;;